»·PEaware :: EJA921 KIFP-KJTC

EJA921 :: KIFP-KJTC

FLIGHT INFORMATION

Flight Status: Arrived
Operator:
Netjets Aviation
More flights by this operator :: More flights under this callsign
Pilot: Kevin M. (7)
Aircraft: CESSNA 525 CITATION JET CJ1
(C525)
More flights by this aircraft type
Origin: KIFP Laughlin/Bullhead Intl
United States
Destination: KJTC Springerville Municipal
United States
More flights between these airports :: More routes between these airports
Route: EED DRK SJN
File this flight plan on PilotEdge
Remarks: alphabet challenge
Altitude:
(Current/Filed)
33,000ft
Speed:
(Current/Filed)
400kts
Departed: 01-Oct-20 01:56 PM
Arrived: 01-Oct-20 02:38 PM
Distance/Time
Traveled:
266nm/0:42
Distance/Time
To Go:
Arrived

Flight Plot

Page will automatically refresh every two minutes.

Flight plan parsing failed; only flown route is shown


Map Options




Map Legend


Flown Route
Filed Route
Departure Airport
Arrival Airport
Navaid (VOR, NDB)
Fix

Horizontal Profiles

Position Reports

Time Latitude Longitude Heading Altitude Ground
Speed
01-Oct-20 13:39 35.157584 -114.556186 262 659ft 0kts
01-Oct-20 13:40 35.157584 -114.556186 262 659ft 0kts
01-Oct-20 13:41 35.157584 -114.556186 262 659ft 0kts
01-Oct-20 13:42 35.157584 -114.556186 262 659ft 0kts
01-Oct-20 13:43 35.157584 -114.556186 262 659ft 0kts
01-Oct-20 13:44 35.157584 -114.556186 262 659ft 0kts
01-Oct-20 13:45 35.157584 -114.556186 262 659ft 0kts
01-Oct-20 13:46 35.157584 -114.556186 262 659ft 0kts
01-Oct-20 13:47 35.157584 -114.556186 262 659ft 0kts
01-Oct-20 13:48 35.157584 -114.556186 262 659ft 0kts
01-Oct-20 13:49 35.157584 -114.556186 262 659ft 0kts
01-Oct-20 13:50 35.157258 -114.556532 184 660ft 13kts
01-Oct-20 13:51 35.153827 -114.557903 182 672ft 26kts
01-Oct-20 13:52 35.145171 -114.557097 178 702ft 20kts
01-Oct-20 13:53 35.143409 -114.557149 185 707ft 0kts
01-Oct-20 13:54 35.143409 -114.557149 185 707ft 0kts
01-Oct-20 13:55 35.162694 -114.559484 358 1222ft 200kts
01-Oct-20 13:56 35.198374 -114.504435 117 6963ft 293kts
01-Oct-20 13:57 35.116019 -114.477500 186 10706ft 373kts
01-Oct-20 13:58 35.016955 -114.456330 125 13817ft 361kts
01-Oct-20 13:59 35.000062 -114.341990 96 17792ft 360kts
01-Oct-20 14:00 34.989461 -114.215941 95 21715ft 380kts
01-Oct-20 14:01 34.976477 -114.078765 100 23701ft 418kts
01-Oct-20 14:02 34.959735 -113.939654 95 26612ft 414kts
01-Oct-20 14:03 34.946420 -113.798389 95 28572ft 413kts
01-Oct-20 14:04 34.932924 -113.663064 95 31420ft 395kts
01-Oct-20 14:05 34.903605 -113.526193 97 33000ft 442kts
01-Oct-20 14:06 34.874974 -113.372438 100 33086ft 464kts
01-Oct-20 14:07 34.847208 -113.226013 101 33101ft 428kts
01-Oct-20 14:08 34.820585 -113.086965 101 33125ft 423kts
01-Oct-20 14:09 34.792747 -112.942301 101 33131ft 454kts
01-Oct-20 14:10 34.763280 -112.790304 101 33143ft 458kts
01-Oct-20 14:11 34.734150 -112.641111 101 33139ft 448kts
01-Oct-20 14:12 34.705454 -112.495039 101 33145ft 442kts
01-Oct-20 14:13 34.676908 -112.350222 101 33153ft 438kts
01-Oct-20 14:14 34.667474 -112.207511 100 33172ft 435kts
01-Oct-20 14:15 34.636698 -112.064522 96 33175ft 441kts
01-Oct-20 14:16 34.611223 -111.916945 99 33164ft 448kts
01-Oct-20 14:17 34.585267 -111.768214 100 33164ft 451kts
01-Oct-20 14:18 34.559111 -111.619230 100 33172ft 452kts
01-Oct-20 14:19 34.532739 -111.469939 100 32963ft 458kts
01-Oct-20 14:20 34.505626 -111.317611 100 32297ft 459kts
01-Oct-20 14:21 34.478828 -111.168138 100 31599ft 451kts
01-Oct-20 14:22 34.452073 -111.020096 100 30901ft 446kts
01-Oct-20 14:23 34.424558 -110.868886 100 30154ft 471kts
01-Oct-20 14:24 34.396039 -110.713437 100 29363ft 473kts
01-Oct-20 14:25 34.367311 -110.557926 101 28568ft 472kts
01-Oct-20 14:26 34.338907 -110.405306 101 27634ft 455kts
01-Oct-20 14:27 34.311131 -110.257148 101 24839ft 444kts
01-Oct-20 14:28 34.284491 -110.116023 102 21830ft 420kts
01-Oct-20 14:29 34.258469 -109.979133 102 18840ft 411kts
01-Oct-20 14:30 34.233410 -109.847989 102 15832ft 385kts
01-Oct-20 14:31 34.209689 -109.724717 103 13848ft 377kts
01-Oct-20 14:32 34.186082 -109.602758 103 12840ft 370kts
01-Oct-20 14:33 34.154285 -109.486742 131 11557ft 357kts
01-Oct-20 14:34 34.095209 -109.412978 128 10071ft 249kts
01-Oct-20 14:35 34.089702 -109.356943 40 8260ft 174kts
01-Oct-20 14:36 34.122658 -109.319932 45 7075ft 143kts
01-Oct-20 14:37 34.133221 -109.306971 129 7028ft 0kts

Navigation Log

Ident Type
Flight plan parsing failed, navigation log unavailable